Auburn Hills, MI (48321)

07:46 EST 7. Únor 2016 (GMT -0500)
2 mi SE of the Palace | | Change Station
CLOSE
Current Station
Osobní povětrnostní stanice
Location: Auburn Hills, MI
Nadmořská výška: 950 ft
Poblíž povětrnostní stanice

Výška 950 ft 42.67 °N, 83.23 °W | Updated 1 second ago

Částečně oblačno
Částečně oblačno
30.8 °F
Pocit jako 31 °F
S
0.0
Vítr proměnlivý Vítr od JJZ
Gusts 0.0 mil/h

Dnes
Vysoké -- | Nízké -- °F
--% Možnost srážek
Včera
Vysoké -- | Nízké -- °F
Precip. -- inčů
Tlak 29.99 inčů
Viditelnost 7.0 mílí
Zataženo Polojasno 12000 ft
Ochlazování větrem 31 °F
Rosný bod 23 °F
Vlhkost 72%
Dešťové srážky 0.00 inčů
Sněhová pokrývka Není k dispozici
7:41 AM 5:53 PM
Ubývající srpek, 2% visible
METAR KPTK 071153Z 18004KT 7SM SCT120 M01/M04 A2996 RMK AO2 SLP156 T10111039 10006 21017 58023
Tlak 29.99 inčů
Viditelnost 7.0 mílí
Zataženo Polojasno 12000 ft
Ochlazování větrem 31 °F
Rosný bod 23 °F
Vlhkost 72%
Dešťové srážky 0.00 inčů
Sněhová pokrývka Není k dispozici
7:41 AM 5:53 PM
Ubývající srpek, 2% visible
METAR KPTK 071153Z 18004KT 7SM SCT120 M01/M04 A2996 RMK AO2 SLP156 T10111039 10006 21017 58023

10-Day Weather Forecast

Almanac

Astronomie

Feb. 07, 2016 Východ Západ
Skutečný čas
Občanský soumrak
Námořní soumrak
Astronomický soumrak
Měsíc
Délka denního světla
Délka dne
Tomorrow will be .
, % of the Moon is Illuminated

Dnešní extrémy

State Highs State Lows

Community

WunderPhotos

Upload Photos

1,891,189 snímků staženo!

WunderBlog® & News

Nearby

Kvalita ovzduší

  Kvalita ovzduší Index kvality ovzduší Polutant
Not available.

Výška sněhu

Station Hloubka Nadmořská výška

Seizmická činnost

Město Distance Mag. Čas & datum
Minimální zobrazený rozsah je 2.5.

Pobřežní teplota vody

Lokalita Teplota

Stations

Poblíž povětrnostní stanice

Lokace stanice Tepl. Ochlazování větrem Rosný bod Vlhkost Vítr Precip. Výška Čas hlášení Typ
                   

Watches & Warnings

There are currently no watches in effect.